createdAt,value
2018-09-18T00:00:16.885Z,19.76
2018-09-18T00:00:43.026Z,19.67
2018-09-18T00:01:09.160Z,19.67
2018-09-18T00:01:35.323Z,19.84
2018-09-18T00:02:01.458Z,19.82
2018-09-18T00:02:27.593Z,19.77
2018-09-18T00:02:53.728Z,19.89
2018-09-18T00:03:19.889Z,19.89
2018-09-18T00:03:46.028Z,19.81
2018-09-18T00:04:12.186Z,19.82
2018-09-18T00:04:38.317Z,19.82
2018-09-18T00:05:04.463Z,19.82
2018-09-18T00:05:30.589Z,19.79
2018-09-18T00:05:56.722Z,19.84
2018-09-18T00:06:22.856Z,19.92
2018-09-18T00:06:48.997Z,19.84
2018-09-18T00:07:15.133Z,19.77
2018-09-18T00:07:41.264Z,19.82
2018-09-18T00:08:07.429Z,19.84
2018-09-18T00:08:33.563Z,19.79
2018-09-18T00:08:59.687Z,19.79
2018-09-18T00:09:25.825Z,19.81
2018-09-18T00:09:54.993Z,19.81
2018-09-18T00:10:21.135Z,19.86
2018-09-18T00:10:47.284Z,19.82
2018-09-18T00:11:13.419Z,19.81
2018-09-18T00:11:39.552Z,19.88
2018-09-18T00:12:05.713Z,19.81
2018-09-18T00:12:31.850Z,19.79
2018-09-18T00:12:57.978Z,19.59
2018-09-18T00:13:24.109Z,19.66
2018-09-18T00:13:50.251Z,19.71
2018-09-18T00:14:16.387Z,19.66
2018-09-18T00:14:42.538Z,19.69
2018-09-18T00:15:08.717Z,19.67
2018-09-18T00:15:34.863Z,19.69
2018-09-18T00:16:00.999Z,19.71
2018-09-18T00:16:27.135Z,19.7
2018-09-18T00:16:53.271Z,19.7
2018-09-18T00:17:19.411Z,19.66
2018-09-18T00:17:45.563Z,19.69
2018-09-18T00:18:11.726Z,19.59
2018-09-18T00:18:37.864Z,19.56
2018-09-18T00:19:04.028Z,19.67
2018-09-18T00:19:30.162Z,19.59
2018-09-18T00:19:56.300Z,19.45
2018-09-18T00:20:22.452Z,19.52
2018-09-18T00:20:48.607Z,19.49
2018-09-18T00:21:14.733Z,19.48
2018-09-18T00:21:40.892Z,19.55
2018-09-18T00:22:07.033Z,19.52
2018-09-18T00:22:33.165Z,19.51
2018-09-18T00:22:59.314Z,19.49
2018-09-18T00:23:25.441Z,19.63
2018-09-18T00:23:51.580Z,19.58
2018-09-18T00:24:17.737Z,19.54
2018-09-18T00:24:43.873Z,19.51
2018-09-18T00:25:10.002Z,19.52
2018-09-18T00:25:36.166Z,19.45
2018-09-18T00:26:02.301Z,19.56
2018-09-18T00:26:28.436Z,19.62
2018-09-18T00:26:54.567Z,19.63
2018-09-18T00:27:20.702Z,19.56
2018-09-18T00:27:46.834Z,19.58
2018-09-18T00:28:12.966Z,19.69
2018-09-18T00:28:39.110Z,19.58
2018-09-18T00:29:05.242Z,19.59
2018-09-18T00:29:31.381Z,19.63
2018-09-18T00:29:57.518Z,19.56
2018-09-18T00:30:23.647Z,19.62
2018-09-18T00:30:49.783Z,19.56
2018-09-18T00:31:15.935Z,19.59
2018-09-18T00:31:42.063Z,19.66
2018-09-18T00:32:08.200Z,19.59
2018-09-18T00:32:34.359Z,19.59
2018-09-18T00:33:00.492Z,19.59
2018-09-18T00:33:26.625Z,19.56
2018-09-18T00:33:52.761Z,19.58
2018-09-18T00:34:18.891Z,19.56
2018-09-18T00:34:45.035Z,19.56
2018-09-18T00:35:11.192Z,19.56
2018-09-18T00:35:37.341Z,19.63
2018-09-18T00:36:03.474Z,19.64
2018-09-18T00:36:29.614Z,19.63
2018-09-18T00:36:55.767Z,19.66
2018-09-18T00:37:21.925Z,19.58
2018-09-18T00:37:48.059Z,19.56
2018-09-18T00:38:14.241Z,19.58
2018-09-18T00:38:40.373Z,19.64
2018-09-18T00:39:06.506Z,19.56
2018-09-18T00:39:32.643Z,19.62
2018-09-18T00:39:58.808Z,19.66
2018-09-18T00:40:24.940Z,19.51
2018-09-18T00:40:51.082Z,19.49
2018-09-18T00:41:17.209Z,19.54
2018-09-18T00:41:43.337Z,19.47
2018-09-18T00:42:09.474Z,19.58
2018-09-18T00:42:35.630Z,19.55
2018-09-18T00:43:01.797Z,19.56
2018-09-18T00:43:27.930Z,19.63
2018-09-18T00:43:54.072Z,19.59
2018-09-18T00:44:20.230Z,19.55
2018-09-18T00:44:46.353Z,19.62
2018-09-18T00:45:12.543Z,19.58
2018-09-18T00:45:38.682Z,19.51
2018-09-18T00:46:04.818Z,19.64
2018-09-18T00:46:30.990Z,19.58
2018-09-18T00:46:57.163Z,19.59
2018-09-18T00:47:23.291Z,19.58
2018-09-18T00:47:49.427Z,19.56
2018-09-18T00:48:15.564Z,19.59
2018-09-18T00:48:41.703Z,19.59
2018-09-18T00:49:07.864Z,19.62
2018-09-18T00:49:33.995Z,19.58
2018-09-18T00:50:00.128Z,19.56
2018-09-18T00:50:26.270Z,19.48
2018-09-18T00:50:52.404Z,19.49
2018-09-18T00:51:18.564Z,19.47
2018-09-18T00:51:44.696Z,19.51
2018-09-18T00:52:10.837Z,19.49
2018-09-18T00:52:36.974Z,19.41
2018-09-18T00:53:03.098Z,19.48
2018-09-18T00:53:29.229Z,19.49
2018-09-18T00:53:55.361Z,19.49
2018-09-18T00:54:21.532Z,19.55
2018-09-18T00:54:47.635Z,19.55
2018-09-18T00:55:13.764Z,19.54
2018-09-18T00:55:39.903Z,19.48
2018-09-18T00:56:06.035Z,19.41
2018-09-18T00:56:32.169Z,19.44
2018-09-18T00:56:58.298Z,19.48
2018-09-18T00:57:24.438Z,19.55
2018-09-18T00:57:50.600Z,19.49
2018-09-18T00:58:16.751Z,19.56
2018-09-18T00:58:42.884Z,19.59
2018-09-18T00:59:09.022Z,19.52
2018-09-18T00:59:35.182Z,19.51
2018-09-18T01:00:01.314Z,19.52
2018-09-18T01:00:27.447Z,19.4
2018-09-18T01:00:53.573Z,19.49
2018-09-18T01:01:19.754Z,19.49
2018-09-18T01:01:45.894Z,19.51
2018-09-18T01:02:12.025Z,19.48
2018-09-18T01:02:38.163Z,19.48
2018-09-18T01:03:04.300Z,19.45
2018-09-18T01:03:30.429Z,19.52
2018-09-18T01:03:56.565Z,19.56
2018-09-18T01:04:22.699Z,19.54
2018-09-18T01:04:48.831Z,19.47
2018-09-18T01:05:14.974Z,19.36
2018-09-18T01:05:41.113Z,19.31
2018-09-18T01:06:07.264Z,19.31
2018-09-18T01:06:33.396Z,19.27
2018-09-18T01:06:59.529Z,19.24
2018-09-18T01:07:25.665Z,19.3
2018-09-18T01:07:51.793Z,19.3
2018-09-18T01:08:17.942Z,19.27
2018-09-18T01:08:44.068Z,19.3
2018-09-18T01:09:10.208Z,19.44
2018-09-18T01:09:36.341Z,19.44
2018-09-18T01:10:02.477Z,19.37
2018-09-18T01:10:28.609Z,19.4
2018-09-18T01:10:54.764Z,19.41
2018-09-18T01:11:20.903Z,19.41
2018-09-18T01:11:47.039Z,19.41
2018-09-18T01:12:13.163Z,19.34
2018-09-18T01:12:39.342Z,19.44
2018-09-18T01:13:05.471Z,19.39
2018-09-18T01:13:31.627Z,19.49
2018-09-18T01:13:57.758Z,19.44
2018-09-18T01:14:23.909Z,19.31
2018-09-18T01:14:50.071Z,19.33
2018-09-18T01:15:16.233Z,19.29
2018-09-18T01:15:42.358Z,19.3
2018-09-18T01:16:08.496Z,19.4
2018-09-18T01:16:34.626Z,19.39
2018-09-18T01:17:00.784Z,19.37
2018-09-18T01:17:26.915Z,19.37
2018-09-18T01:17:53.049Z,19.37
2018-09-18T01:18:19.180Z,19.4
2018-09-18T01:18:45.337Z,19.37
2018-09-18T01:19:11.474Z,19.34
2018-09-18T01:19:37.627Z,19.36
2018-09-18T01:20:03.773Z,19.29
2018-09-18T01:20:29.892Z,19.39
2018-09-18T01:20:56.028Z,19.33
2018-09-18T01:21:22.169Z,19.34
2018-09-18T01:21:48.300Z,19.34
2018-09-18T01:22:14.436Z,19.36
2018-09-18T01:22:40.570Z,19.33
2018-09-18T01:23:06.721Z,19.44
2018-09-18T01:23:32.882Z,19.4
2018-09-18T01:23:59.037Z,19.39
2018-09-18T01:24:25.196Z,19.45
2018-09-18T01:24:51.329Z,19.39
2018-09-18T01:25:17.467Z,19.49
2018-09-18T01:25:43.599Z,19.39
2018-09-18T01:26:09.765Z,19.48
2018-09-18T01:26:35.945Z,19.4
2018-09-18T01:27:02.087Z,19.37
2018-09-18T01:27:28.221Z,19.39
2018-09-18T01:27:54.381Z,19.45
2018-09-18T01:28:20.520Z,19.4
2018-09-18T01:28:46.670Z,19.36
2018-09-18T01:29:12.833Z,19.37
2018-09-18T01:29:38.968Z,19.45
2018-09-18T01:30:05.100Z,19.47
2018-09-18T01:30:31.260Z,19.39
2018-09-18T01:30:57.389Z,19.45
2018-09-18T01:31:23.521Z,19.4
2018-09-18T01:31:49.653Z,19.45
2018-09-18T01:32:15.792Z,19.44
2018-09-18T01:32:41.922Z,19.51
2018-09-18T01:33:08.072Z,19.49
2018-09-18T01:33:34.213Z,19.48
2018-09-18T01:34:00.341Z,19.52
2018-09-18T01:34:26.498Z,19.49
2018-09-18T01:34:52.631Z,19.39
2018-09-18T01:35:18.770Z,19.41
2018-09-18T01:35:44.924Z,19.45
2018-09-18T01:36:11.088Z,19.45
2018-09-18T01:36:37.216Z,19.49
2018-09-18T01:37:03.347Z,19.48
2018-09-18T01:37:29.487Z,19.49
2018-09-18T01:37:55.626Z,19.44
2018-09-18T01:38:21.756Z,19.41
2018-09-18T01:38:47.915Z,19.4
2018-09-18T01:39:14.047Z,19.39
2018-09-18T01:39:40.181Z,19.34
2018-09-18T01:40:06.312Z,19.24
2018-09-18T01:40:32.448Z,19.27
2018-09-18T01:40:58.578Z,19.33
2018-09-18T01:41:24.742Z,19.29
2018-09-18T01:41:50.872Z,19.31
2018-09-18T01:42:17.004Z,19.27
2018-09-18T01:42:43.144Z,19.3
2018-09-18T01:43:09.307Z,19.34
2018-09-18T01:43:35.444Z,19.26
2018-09-18T01:44:01.640Z,19.29
2018-09-18T01:44:27.773Z,19.3
2018-09-18T01:44:53.905Z,19.27
2018-09-18T01:45:20.045Z,19.29
2018-09-18T01:45:46.211Z,19.14
2018-09-18T01:46:12.345Z,19.18
2018-09-18T01:46:38.477Z,19.16
2018-09-18T01:47:04.612Z,19.19
2018-09-18T01:47:30.772Z,19.14
2018-09-18T01:47:56.897Z,19.14
2018-09-18T01:48:23.029Z,19.14
2018-09-18T01:48:49.169Z,19.14
2018-09-18T01:49:15.309Z,19.12
2018-09-18T01:49:41.476Z,19.18
2018-09-18T01:50:07.640Z,19.15
2018-09-18T01:50:33.797Z,19.08
2018-09-18T01:50:59.948Z,19.09
2018-09-18T01:51:26.080Z,19.08
2018-09-18T01:51:52.214Z,19.12
2018-09-18T01:52:18.345Z,19.14
2018-09-18T01:52:44.477Z,19.07
2018-09-18T01:53:10.638Z,19.21
2018-09-18T01:53:36.768Z,19.22
2018-09-18T01:54:02.914Z,19.16
2018-09-18T01:54:29.068Z,19.18
2018-09-18T01:54:55.203Z,19.12
2018-09-18T01:55:21.359Z,19.11
2018-09-18T01:55:47.489Z,19.22
2018-09-18T01:56:13.620Z,19.16
2018-09-18T01:56:39.760Z,19.19
2018-09-18T01:57:05.921Z,19.19
2018-09-18T01:57:32.076Z,19.14
2018-09-18T01:57:58.215Z,19.21
2018-09-18T01:58:24.347Z,19.08
2018-09-18T01:58:50.491Z,19.12
2018-09-18T01:59:16.623Z,19.09
2018-09-18T01:59:42.754Z,19.08
2018-09-18T02:00:08.923Z,19.12
2018-09-18T02:00:35.101Z,19.12
2018-09-18T02:01:01.233Z,19.09
2018-09-18T02:01:27.369Z,19.12
2018-09-18T02:01:53.525Z,19.18
2018-09-18T02:02:19.683Z,19.24
2018-09-18T02:02:45.820Z,19.12
2018-09-18T02:03:11.953Z,19.18
2018-09-18T02:03:38.107Z,19.07
2018-09-18T02:04:04.236Z,19.11
2018-09-18T02:04:30.372Z,19.08
2018-09-18T02:04:56.504Z,19.09
2018-09-18T02:05:22.640Z,19.14
2018-09-18T02:05:48.774Z,19.11
2018-09-18T02:06:14.909Z,19.09
2018-09-18T02:06:41.071Z,19.11
2018-09-18T02:07:07.203Z,19.12
2018-09-18T02:07:33.342Z,19.08
2018-09-18T02:07:59.473Z,19.09
2018-09-18T02:08:25.610Z,19.15
2018-09-18T02:08:51.764Z,19.22
2018-09-18T02:09:17.899Z,19.22
2018-09-18T02:09:44.042Z,19.15
2018-09-18T02:10:10.208Z,19.14
2018-09-18T02:10:36.366Z,19.16
2018-09-18T02:11:02.496Z,19.07
2018-09-18T02:11:28.633Z,19.16
2018-09-18T02:11:54.758Z,19.08
2018-09-18T02:12:20.924Z,19.14
2018-09-18T02:12:47.062Z,19.04
2018-09-18T02:13:13.193Z,19.08
2018-09-18T02:13:39.327Z,19.12
2018-09-18T02:14:05.480Z,19.08
2018-09-18T02:14:31.616Z,19.18
2018-09-18T02:14:57.755Z,19.02
2018-09-18T02:15:23.880Z,19.09
2018-09-18T02:15:50.015Z,19.07
2018-09-18T02:16:16.144Z,19
2018-09-18T02:16:42.278Z,19.11
2018-09-18T02:17:08.412Z,19.11
2018-09-18T02:17:34.545Z,18.99
2018-09-18T02:18:00.669Z,19.02
2018-09-18T02:18:26.807Z,19.02
2018-09-18T02:18:52.947Z,18.99
2018-09-18T02:19:19.074Z,19
2018-09-18T02:19:45.239Z,19.08
2018-09-18T02:20:11.388Z,19.08
2018-09-18T02:20:37.526Z,19.08
2018-09-18T02:21:03.661Z,19.02
2018-09-18T02:21:29.800Z,18.98
2018-09-18T02:21:55.924Z,18.99
2018-09-18T02:22:22.064Z,19.04
2018-09-18T02:22:48.220Z,19.04
2018-09-18T02:23:14.355Z,19
2018-09-18T02:23:40.511Z,18.98
2018-09-18T02:24:06.661Z,19.07
2018-09-18T02:24:32.802Z,19.08
2018-09-18T02:24:58.960Z,19.04
2018-09-18T02:25:25.096Z,19.08
2018-09-18T02:25:51.237Z,19.08
2018-09-18T02:26:17.362Z,19.08
2018-09-18T02:26:43.493Z,19.07
2018-09-18T02:27:09.630Z,19.04
2018-09-18T02:27:35.766Z,19.02
2018-09-18T02:28:01.897Z,19
2018-09-18T02:28:28.059Z,18.98
2018-09-18T02:28:54.187Z,19.08
2018-09-18T02:29:20.334Z,19.02
2018-09-18T02:29:46.465Z,19.07
2018-09-18T02:30:12.623Z,19.09
2018-09-18T02:30:38.779Z,19
2018-09-18T02:31:04.929Z,19.02
2018-09-18T02:31:31.050Z,19.02
2018-09-18T02:31:57.208Z,18.9
2018-09-18T02:32:23.368Z,18.98
2018-09-18T02:32:49.503Z,19.02
2018-09-18T02:33:15.633Z,19.04
2018-09-18T02:33:41.768Z,18.98
2018-09-18T02:34:07.958Z,19.07
2018-09-18T02:34:34.139Z,19.11
2018-09-18T02:35:00.321Z,19.09
2018-09-18T02:35:26.466Z,19.09
2018-09-18T02:35:52.622Z,19.09
2018-09-18T02:36:18.753Z,18.99
2018-09-18T02:36:44.889Z,19
2018-09-18T02:37:11.042Z,19.04
2018-09-18T02:37:37.186Z,19.07
2018-09-18T02:38:03.336Z,19.04
2018-09-18T02:38:29.474Z,19.08
2018-09-18T02:38:55.634Z,19
2018-09-18T02:39:21.763Z,19.08
2018-09-18T02:39:47.906Z,19.07
2018-09-18T02:40:14.059Z,19.07
2018-09-18T02:40:40.209Z,18.99
2018-09-18T02:41:06.356Z,19
2018-09-18T02:41:32.489Z,19.02
2018-09-18T02:41:58.646Z,18.99
2018-09-18T02:42:24.794Z,19
2018-09-18T02:42:50.927Z,18.96
2018-09-18T02:43:17.063Z,18.99
2018-09-18T02:43:43.193Z,18.99
2018-09-18T02:44:09.375Z,18.99
2018-09-18T02:44:35.536Z,18.99
2018-09-18T02:45:01.722Z,18.89
2018-09-18T02:45:27.877Z,18.84
2018-09-18T02:45:54.009Z,18.92
2018-09-18T02:46:20.137Z,18.95
2018-09-18T02:46:46.272Z,18.89
2018-09-18T02:47:12.426Z,18.88
2018-09-18T02:47:38.555Z,18.93
2018-09-18T02:48:04.689Z,18.89
2018-09-18T02:48:30.824Z,18.84
2018-09-18T02:48:57.002Z,18.86
2018-09-18T02:49:23.141Z,18.83
2018-09-18T02:49:49.295Z,18.88
2018-09-18T02:50:15.429Z,18.88
2018-09-18T02:50:41.562Z,18.9
2018-09-18T02:51:07.700Z,18.81
2018-09-18T02:51:33.859Z,18.8
2018-09-18T02:52:00.009Z,18.86
2018-09-18T02:52:26.147Z,18.86
2018-09-18T02:52:52.284Z,18.83
2018-09-18T02:53:18.421Z,18.83
2018-09-18T02:53:44.594Z,18.78
2018-09-18T02:54:10.726Z,18.81
2018-09-18T02:54:36.884Z,18.75
2018-09-18T02:55:03.023Z,18.78
2018-09-18T02:55:29.164Z,18.83
2018-09-18T02:55:55.294Z,18.88
2018-09-18T02:56:21.433Z,18.88
2018-09-18T02:56:47.566Z,18.84
2018-09-18T02:57:13.731Z,18.86
2018-09-18T02:57:39.859Z,18.86
2018-09-18T02:58:05.998Z,18.86
2018-09-18T02:58:32.145Z,18.81
2018-09-18T02:58:58.287Z,18.83
2018-09-18T02:59:24.438Z,18.81
2018-09-18T02:59:50.570Z,18.77
2018-09-18T03:00:16.709Z,18.84
2018-09-18T03:00:42.840Z,18.83
2018-09-18T03:01:08.973Z,18.89
2018-09-18T03:01:35.113Z,18.83
2018-09-18T03:02:01.245Z,18.86
2018-09-18T03:02:27.382Z,18.78
2018-09-18T03:02:53.535Z,18.75
2018-09-18T03:03:19.690Z,18.84
2018-09-18T03:03:45.818Z,18.73
2018-09-18T03:04:11.956Z,18.8
2018-09-18T03:04:38.113Z,18.81
2018-09-18T03:05:04.261Z,18.75
2018-09-18T03:05:30.416Z,18.78
2018-09-18T03:05:56.541Z,18.71
2018-09-18T03:06:22.680Z,18.71
2018-09-18T03:06:48.839Z,18.8
2018-09-18T03:07:14.964Z,18.83
2018-09-18T03:07:41.100Z,18.77
2018-09-18T03:08:07.259Z,18.8
2018-09-18T03:08:33.406Z,18.81
2018-09-18T03:08:59.537Z,18.78
2018-09-18T03:09:25.676Z,18.83
2018-09-18T03:09:51.812Z,18.73
2018-09-18T03:10:17.963Z,18.77
2018-09-18T03:10:44.104Z,18.77
2018-09-18T03:11:10.273Z,18.74
2018-09-18T03:11:36.411Z,18.66
2018-09-18T03:12:02.564Z,18.6
2018-09-18T03:12:28.701Z,18.68
2018-09-18T03:12:54.834Z,18.75
2018-09-18T03:13:21.015Z,18.75
2018-09-18T03:13:47.173Z,18.7
2018-09-18T03:14:13.304Z,18.83
2018-09-18T03:14:39.443Z,18.78
2018-09-18T03:15:05.573Z,18.74
2018-09-18T03:15:31.733Z,18.75
2018-09-18T03:15:57.888Z,18.75
2018-09-18T03:16:24.043Z,18.71
2018-09-18T03:16:50.193Z,18.75
2018-09-18T03:17:16.330Z,18.73
2018-09-18T03:17:42.468Z,18.73
2018-09-18T03:18:08.628Z,18.74
2018-09-18T03:18:34.763Z,18.7
2018-09-18T03:19:00.916Z,18.7
2018-09-18T03:19:27.052Z,18.74
2018-09-18T03:19:53.193Z,18.74
2018-09-18T03:20:19.346Z,18.75
2018-09-18T03:20:45.576Z,18.8
2018-09-18T03:21:11.656Z,18.73
2018-09-18T03:21:37.815Z,18.8
2018-09-18T03:22:03.969Z,18.74
2018-09-18T03:22:30.132Z,18.84
2018-09-18T03:22:56.259Z,18.7
2018-09-18T03:23:22.395Z,18.74
2018-09-18T03:23:48.529Z,18.71
2018-09-18T03:24:14.657Z,18.78
2018-09-18T03:24:40.793Z,18.77
2018-09-18T03:25:06.949Z,18.74
2018-09-18T03:25:33.085Z,18.75
2018-09-18T03:25:59.215Z,18.7
2018-09-18T03:26:25.400Z,18.7
2018-09-18T03:26:51.529Z,18.83
2018-09-18T03:27:17.707Z,18.74
2018-09-18T03:27:43.807Z,18.78
2018-09-18T03:28:09.938Z,18.77
2018-09-18T03:28:36.101Z,18.73
2018-09-18T03:29:02.238Z,18.74
2018-09-18T03:29:28.419Z,18.75
2018-09-18T03:29:54.582Z,18.78
2018-09-18T03:30:20.746Z,18.75
2018-09-18T03:30:46.879Z,18.8
2018-09-18T03:31:13.009Z,18.8
2018-09-18T03:31:39.161Z,18.78
2018-09-18T03:32:05.344Z,18.7
2018-09-18T03:32:31.502Z,18.8
2018-09-18T03:32:57.646Z,18.71
2018-09-18T03:33:23.780Z,18.75
2018-09-18T03:33:49.915Z,18.73
2018-09-18T03:34:16.043Z,18.83
2018-09-18T03:34:42.197Z,18.74
2018-09-18T03:35:08.334Z,18.74
2018-09-18T03:35:34.543Z,18.77
2018-09-18T03:36:00.642Z,18.7
2018-09-18T03:36:26.794Z,18.81
2018-09-18T03:36:52.949Z,18.77
2018-09-18T03:37:19.083Z,18.8
2018-09-18T03:37:45.218Z,18.77
2018-09-18T03:38:11.356Z,18.74
2018-09-18T03:38:37.533Z,18.71
2018-09-18T03:39:03.670Z,18.81
2018-09-18T03:39:29.829Z,18.84
2018-09-18T03:39:55.964Z,18.8
2018-09-18T03:40:22.094Z,18.74
2018-09-18T03:40:48.256Z,18.78
2018-09-18T03:41:14.385Z,18.74
2018-09-18T03:41:40.523Z,18.71
2018-09-18T03:42:06.671Z,18.73
2018-09-18T03:42:32.828Z,18.74
2018-09-18T03:42:58.985Z,18.71
2018-09-18T03:43:25.122Z,18.75
2018-09-18T03:43:51.252Z,18.75
2018-09-18T03:44:17.389Z,18.73
2018-09-18T03:44:43.518Z,18.68
2018-09-18T03:45:09.653Z,18.68
2018-09-18T03:45:35.817Z,18.56
2018-09-18T03:46:01.978Z,18.63
2018-09-18T03:46:28.109Z,18.56
2018-09-18T03:46:54.245Z,18.68
2018-09-18T03:47:20.379Z,18.62
2018-09-18T03:47:46.508Z,18.65
2018-09-18T03:48:12.643Z,18.7
2018-09-18T03:48:38.784Z,18.7
2018-09-18T03:49:04.936Z,18.77
2018-09-18T03:49:31.097Z,18.75
2018-09-18T03:49:57.260Z,18.75
2018-09-18T03:50:23.415Z,18.71
2018-09-18T03:50:49.552Z,18.74
2018-09-18T03:51:15.675Z,18.74
2018-09-18T03:51:41.838Z,18.68
2018-09-18T03:52:08.020Z,18.68
2018-09-18T03:52:34.154Z,18.74
2018-09-18T03:53:00.288Z,18.77
2018-09-18T03:53:26.431Z,18.74
2018-09-18T03:53:52.566Z,18.77
2018-09-18T03:54:18.704Z,18.68
2018-09-18T03:54:44.858Z,18.68
2018-09-18T03:55:11.002Z,18.7
2018-09-18T03:55:37.150Z,18.62
2018-09-18T03:56:03.295Z,18.6
2018-09-18T03:56:29.437Z,18.6
2018-09-18T03:56:55.596Z,18.55
2018-09-18T03:57:21.718Z,18.68
2018-09-18T03:57:47.858Z,18.6
2018-09-18T03:58:14.018Z,18.63
2018-09-18T03:58:40.151Z,18.59
2018-09-18T03:59:06.311Z,18.55
2018-09-18T03:59:32.444Z,18.53
2018-09-18T03:59:58.612Z,18.63
2018-09-18T04:00:24.741Z,18.59
2018-09-18T04:00:50.885Z,18.65
2018-09-18T04:01:17.017Z,18.71
2018-09-18T04:01:43.147Z,18.53
2018-09-18T04:02:09.284Z,18.7
2018-09-18T04:02:35.438Z,18.66
2018-09-18T04:03:01.666Z,18.6
2018-09-18T04:03:27.703Z,18.68
2018-09-18T04:03:53.838Z,18.66
2018-09-18T04:04:19.995Z,18.62
2018-09-18T04:04:46.119Z,18.65
2018-09-18T04:05:12.279Z,18.65
2018-09-18T04:05:38.413Z,18.6
2018-09-18T04:06:04.550Z,18.62
2018-09-18T04:06:30.684Z,18.65
2018-09-18T04:06:56.822Z,18.55
2018-09-18T04:07:22.956Z,18.58
2018-09-18T04:07:49.089Z,18.62
2018-09-18T04:08:15.222Z,18.62
2018-09-18T04:08:41.379Z,18.68
2018-09-18T04:09:07.515Z,18.63
2018-09-18T04:09:33.648Z,18.71
2018-09-18T04:09:59.785Z,18.65
2018-09-18T04:10:25.958Z,18.62
2018-09-18T04:10:52.096Z,18.59
2018-09-18T04:11:18.262Z,18.53
2018-09-18T04:11:44.383Z,18.53
2018-09-18T04:12:10.519Z,18.47
2018-09-18T04:12:36.667Z,18.52
2018-09-18T04:13:02.787Z,18.59
2018-09-18T04:13:28.929Z,18.65
2018-09-18T04:13:55.067Z,18.63
2018-09-18T04:14:21.200Z,18.59
2018-09-18T04:14:47.349Z,18.62
2018-09-18T04:15:13.491Z,18.63
2018-09-18T04:15:39.627Z,18.63
2018-09-18T04:16:05.825Z,18.66
2018-09-18T04:16:31.959Z,18.68
2018-09-18T04:16:58.123Z,18.63
2018-09-18T04:17:24.359Z,18.59
2018-09-18T04:17:50.419Z,18.65
2018-09-18T04:18:16.603Z,18.49
2018-09-18T04:18:42.737Z,18.38
2018-09-18T04:19:08.899Z,18.45
2018-09-18T04:19:35.034Z,18.56
2018-09-18T04:20:01.174Z,18.5
2018-09-18T04:20:27.304Z,18.49
2018-09-18T04:20:53.441Z,18.5
2018-09-18T04:21:19.570Z,18.45
2018-09-18T04:21:45.708Z,18.53
2018-09-18T04:22:11.872Z,18.65
2018-09-18T04:22:38.010Z,18.6
2018-09-18T04:23:04.163Z,18.65
2018-09-18T04:23:30.297Z,18.56
2018-09-18T04:23:56.462Z,18.55
2018-09-18T04:24:22.620Z,18.55
2018-09-18T04:24:48.756Z,18.53
2018-09-18T04:25:14.945Z,18.53
2018-09-18T04:25:41.074Z,18.55
2018-09-18T04:26:07.230Z,18.6
2018-09-18T04:26:33.387Z,18.62
2018-09-18T04:26:59.521Z,18.65
2018-09-18T04:27:25.661Z,18.65
2018-09-18T04:27:51.808Z,18.66
2018-09-18T04:28:17.951Z,18.71
2018-09-18T04:28:44.081Z,18.6
2018-09-18T04:29:10.243Z,18.68
2018-09-18T04:29:36.370Z,18.63
2018-09-18T04:30:02.504Z,18.7
2018-09-18T04:30:28.639Z,18.62
2018-09-18T04:30:54.792Z,18.68
2018-09-18T04:31:20.932Z,18.63
2018-09-18T04:31:47.062Z,18.65
2018-09-18T04:32:13.259Z,18.62
2018-09-18T04:32:39.421Z,18.65
2018-09-18T04:33:05.598Z,18.6
2018-09-18T04:33:31.799Z,18.6
2018-09-18T04:33:57.952Z,18.62
2018-09-18T04:34:24.086Z,18.63
2018-09-18T04:34:50.220Z,18.62
2018-09-18T04:35:16.353Z,18.62
2018-09-18T04:35:42.491Z,18.6
2018-09-18T04:36:08.631Z,18.6
2018-09-18T04:36:34.751Z,18.53
2018-09-18T04:37:00.948Z,18.55
2018-09-18T04:37:27.107Z,18.53
2018-09-18T04:37:53.246Z,18.56
2018-09-18T04:38:19.407Z,18.52
2018-09-18T04:38:45.539Z,18.49
2018-09-18T04:39:11.731Z,18.49
2018-09-18T04:39:37.865Z,18.52
2018-09-18T04:40:04.003Z,18.41
2018-09-18T04:40:30.163Z,18.52
2018-09-18T04:40:56.296Z,18.49
2018-09-18T04:41:22.444Z,18.52
2018-09-18T04:41:48.610Z,18.47
2018-09-18T04:42:14.741Z,18.43
2018-09-18T04:42:40.893Z,18.43
2018-09-18T04:43:07.031Z,18.41
2018-09-18T04:43:33.167Z,18.35
2018-09-18T04:43:59.290Z,18.38
2018-09-18T04:44:25.477Z,18.33
2018-09-18T04:44:51.615Z,18.38
2018-09-18T04:45:17.750Z,18.35
2018-09-18T04:45:43.921Z,18.37
2018-09-18T04:46:10.030Z,18.37
2018-09-18T04:46:36.167Z,18.37
2018-09-18T04:47:02.318Z,18.33
2018-09-18T04:47:28.484Z,18.41
2018-09-18T04:47:54.632Z,18.44
2018-09-18T04:48:20.770Z,18.41
2018-09-18T04:48:46.921Z,18.4
2018-09-18T04:49:13.064Z,18.4
2018-09-18T04:49:39.221Z,18.43
2018-09-18T04:50:05.354Z,18.38
2018-09-18T04:50:31.487Z,18.43
2018-09-18T04:50:57.672Z,18.45
2018-09-18T04:51:23.799Z,18.41
2018-09-18T04:51:49.938Z,18.38
2018-09-18T04:52:16.120Z,18.41
2018-09-18T04:52:42.247Z,18.45
2018-09-18T04:53:08.510Z,18.4
2018-09-18T04:53:34.651Z,18.4
2018-09-18T04:54:00.804Z,18.44
2018-09-18T04:54:26.967Z,18.38
2018-09-18T04:54:53.153Z,18.44
2018-09-18T04:55:19.273Z,18.43
2018-09-18T04:55:45.406Z,18.38
2018-09-18T04:56:11.546Z,18.43
2018-09-18T04:56:37.703Z,18.41
2018-09-18T04:57:03.836Z,18.4
2018-09-18T04:57:29.994Z,18.37
2018-09-18T04:57:56.128Z,18.33
2018-09-18T04:58:22.288Z,18.31
2018-09-18T04:58:48.426Z,18.43
2018-09-18T04:59:14.615Z,18.35
2018-09-18T04:59:40.744Z,18.34
2018-09-18T05:00:06.907Z,18.33
2018-09-18T05:00:33.042Z,18.29
2018-09-18T05:00:59.183Z,18.23
2018-09-18T05:01:25.306Z,18.26
2018-09-18T05:01:51.437Z,18.29
2018-09-18T05:02:17.588Z,18.25
2018-09-18T05:02:43.728Z,18.23
2018-09-18T05:03:09.865Z,18.23
2018-09-18T05:03:36.004Z,18.26
2018-09-18T05:04:02.146Z,18.26
2018-09-18T05:04:28.300Z,18.31
2018-09-18T05:04:54.429Z,18.26
2018-09-18T05:05:20.573Z,18.28
2018-09-18T05:05:46.733Z,18.25
2018-09-18T05:06:12.888Z,18.28
2018-09-18T05:06:39.063Z,18.25
2018-09-18T05:07:05.202Z,18.29
2018-09-18T05:07:31.327Z,18.31
2018-09-18T05:07:57.457Z,18.23
2018-09-18T05:08:23.590Z,18.22
2018-09-18T05:08:49.741Z,18.22
2018-09-18T05:09:15.918Z,18.26
2018-09-18T05:09:42.049Z,18.26
2018-09-18T05:10:08.191Z,18.31
2018-09-18T05:10:34.324Z,18.26
2018-09-18T05:11:00.485Z,18.31
2018-09-18T05:11:26.675Z,18.28
2018-09-18T05:11:52.822Z,18.2
2018-09-18T05:12:18.974Z,18.23
2018-09-18T05:12:45.144Z,18.28
2018-09-18T05:13:11.274Z,18.23
2018-09-18T05:13:37.412Z,18.23
2018-09-18T05:14:03.640Z,18.29
2018-09-18T05:14:29.728Z,18.19
2018-09-18T05:14:55.856Z,18.19
2018-09-18T05:15:21.988Z,18.22
2018-09-18T05:15:48.149Z,18.25
2018-09-18T05:16:14.304Z,18.2
2018-09-18T05:16:40.444Z,18.19
2018-09-18T05:17:06.580Z,18.29
2018-09-18T05:17:32.749Z,18.26
2018-09-18T05:17:58.887Z,18.29
2018-09-18T05:18:25.011Z,18.16
2018-09-18T05:18:51.190Z,18.16
2018-09-18T05:19:17.327Z,18.05
2018-09-18T05:19:43.465Z,18.15
2018-09-18T05:20:09.600Z,18.25
2018-09-18T05:20:35.729Z,18.1
2018-09-18T05:21:01.865Z,18.19
2018-09-18T05:21:28.000Z,18.08
2018-09-18T05:21:54.130Z,18.2
2018-09-18T05:22:20.273Z,18.16
2018-09-18T05:22:46.434Z,18.15
2018-09-18T05:23:12.566Z,18.2
2018-09-18T05:23:38.708Z,18.11
2018-09-18T05:24:04.841Z,18.15
2018-09-18T05:24:30.979Z,18.16
2018-09-18T05:24:57.113Z,18.16
2018-09-18T05:25:23.260Z,18.13
2018-09-18T05:25:49.403Z,18.28
2018-09-18T05:26:15.560Z,18.2
2018-09-18T05:26:41.719Z,18.26
2018-09-18T05:27:07.847Z,18.31
2018-09-18T05:27:33.983Z,18.31
2018-09-18T05:28:00.106Z,18.19
2018-09-18T05:28:26.239Z,18.19
2018-09-18T05:28:52.372Z,18.19
2018-09-18T05:29:18.503Z,18.19
2018-09-18T05:29:44.663Z,18.2
2018-09-18T05:30:10.800Z,18.2
2018-09-18T05:30:36.999Z,18.19
2018-09-18T05:31:03.162Z,18.04
2018-09-18T05:31:29.292Z,18.16
2018-09-18T05:31:55.451Z,18.19
2018-09-18T05:32:21.607Z,18.08
2018-09-18T05:32:47.740Z,18.22
2018-09-18T05:33:13.874Z,18.15
2018-09-18T05:33:40.040Z,18.22
2018-09-18T05:34:06.156Z,18.26
2018-09-18T05:34:32.282Z,18.28
2018-09-18T05:34:58.413Z,18.26
2018-09-18T05:35:24.544Z,18.28
2018-09-18T05:35:50.678Z,18.23
2018-09-18T05:36:16.813Z,18.23
2018-09-18T05:36:42.948Z,18.25
2018-09-18T05:37:09.090Z,18.28
2018-09-18T05:37:35.226Z,18.28
2018-09-18T05:38:01.381Z,18.25